CXA8234 ZHCC-ZSAM
Flight info
| Callsign | CXA8234 |
|---|---|
| Flight time | N/A |
| Altitude | 33100 |
| Route | RUM9Z RUMGU W594 EPGOS W128 FYG B208 HFE R343 UPLEL W95 SAPIN A470 ENVEN ENVEN8X |
| Aircraft | A21N/M-SDE2E3FGHIRWXY/LB1 |
Departure
| Time | 2026-04-30 05:36 |
|---|---|
| Airport | Zhengzhou Xinzheng International Airport (ZHCC) |
Arrival
| Time | N/A |
|---|---|
| Airport | Xiamen Gaoqi International Airport (ZSAM) |
| Time | Latitude | Longitude | Altitude | Speed | Heading |
|---|---|---|---|---|---|
| 2026-04-30 05:22 | 34.52389 | 113.84778 | 510 ft | 0 kts | 22° |
| 2026-04-30 05:26 | 34.52379 | 113.84774 | 510 ft | 4 kts | 22° |
| 2026-04-30 05:27 | 34.52358 | 113.84763 | 510 ft | 4 kts | 16° |
| 2026-04-30 05:27 | 34.52336 | 113.84762 | 510 ft | 4 kts | 322° |
| 2026-04-30 05:27 | 34.52324 | 113.84787 | 510 ft | 4 kts | 284° |
| 2026-04-30 05:27 | 34.52319 | 113.84807 | 510 ft | 0 kts | 292° |
| 2026-04-30 05:33 | 34.52321 | 113.84801 | 510 ft | 0 kts | 292° |
| 2026-04-30 05:34 | 34.52730 | 113.87654 | 502 ft | 0 kts | 292° |
| 2026-04-30 05:35 | 34.52779 | 113.87512 | 503 ft | 51 kts | 292° |
| 2026-04-30 05:35 | 34.52915 | 113.87114 | 491 ft | 98 kts | 291° |
| 2026-04-30 05:35 | 34.53386 | 113.85718 | 503 ft | 167 kts | 291° |
| 2026-04-30 05:35 | 34.53878 | 113.84324 | 831 ft | 180 kts | 291° |
| 2026-04-30 05:36 | 34.54177 | 113.83405 | 1326 ft | 175 kts | 286° |
| 2026-04-30 05:36 | 34.54468 | 113.81973 | 1966 ft | 176 kts | 276° |
| 2026-04-30 05:36 | 34.54740 | 113.80496 | 2461 ft | 190 kts | 295° |
| 2026-04-30 05:36 | 34.55420 | 113.79027 | 2883 ft | 211 kts | 294° |
| 2026-04-30 05:37 | 34.56098 | 113.77264 | 3008 ft | 250 kts | 291° |
| 2026-04-30 05:37 | 34.56805 | 113.75287 | 3032 ft | 257 kts | 290° |
| 2026-04-30 05:37 | 34.57506 | 113.73298 | 3134 ft | 256 kts | 290° |
| 2026-04-30 05:37 | 34.58200 | 113.71305 | 3888 ft | 259 kts | 290° |
| 2026-04-30 05:38 | 34.58900 | 113.69279 | 4820 ft | 262 kts | 291° |
| 2026-04-30 05:38 | 34.59521 | 113.67206 | 5701 ft | 262 kts | 282° |
| 2026-04-30 05:38 | 34.59536 | 113.65004 | 6370 ft | 264 kts | 258° |
| 2026-04-30 05:38 | 34.58752 | 113.62984 | 6780 ft | 270 kts | 233° |
| 2026-04-30 05:39 | 34.57288 | 113.61547 | 6889 ft | 276 kts | 209° |
| 2026-04-30 05:39 | 34.55506 | 113.60651 | 6913 ft | 278 kts | 203° |
| 2026-04-30 05:39 | 34.53697 | 113.59826 | 6898 ft | 277 kts | 204° |
| 2026-04-30 05:39 | 34.51902 | 113.58974 | 6884 ft | 277 kts | 204° |
| 2026-04-30 05:40 | 34.50109 | 113.58096 | 6882 ft | 278 kts | 205° |
| 2026-04-30 05:40 | 34.48325 | 113.57212 | 6878 ft | 277 kts | 205° |
| 2026-04-30 05:40 | 34.46547 | 113.56322 | 6881 ft | 277 kts | 205° |
| 2026-04-30 05:40 | 34.44767 | 113.55425 | 6879 ft | 277 kts | 205° |
| 2026-04-30 05:41 | 34.42994 | 113.54522 | 7150 ft | 276 kts | 205° |
| 2026-04-30 05:41 | 34.41208 | 113.53598 | 7966 ft | 281 kts | 206° |
| 2026-04-30 05:41 | 34.39395 | 113.52656 | 8826 ft | 286 kts | 206° |
| 2026-04-30 05:41 | 34.37544 | 113.51729 | 9662 ft | 292 kts | 202° |
| 2026-04-30 05:42 | 34.35536 | 113.51156 | 10326 ft | 306 kts | 187° |
| 2026-04-30 05:42 | 34.33336 | 113.51323 | 10689 ft | 330 kts | 168° |
| 2026-04-30 05:42 | 34.31143 | 113.52396 | 11009 ft | 353 kts | 148° |
| 2026-04-30 05:42 | 34.29257 | 113.54400 | 11309 ft | 372 kts | 127° |
| 2026-04-30 05:43 | 34.27919 | 113.57137 | 11606 ft | 388 kts | 113° |
| 2026-04-30 05:43 | 34.26770 | 113.60163 | 11900 ft | 405 kts | 115° |
| 2026-04-30 05:43 | 34.25182 | 113.63052 | 12151 ft | 422 kts | 130° |
| 2026-04-30 05:43 | 34.22946 | 113.65388 | 12615 ft | 429 kts | 145° |
| 2026-04-30 05:44 | 34.20399 | 113.67313 | 13157 ft | 434 kts | 148° |
| 2026-04-30 05:44 | 34.17812 | 113.69199 | 13700 ft | 438 kts | 148° |
| 2026-04-30 05:44 | 34.15190 | 113.71123 | 14197 ft | 442 kts | 148° |
| 2026-04-30 05:44 | 34.12555 | 113.73072 | 14638 ft | 446 kts | 148° |
| 2026-04-30 05:45 | 34.09907 | 113.75039 | 15103 ft | 450 kts | 148° |
| 2026-04-30 05:45 | 34.07229 | 113.77032 | 15594 ft | 454 kts | 148° |
| 2026-04-30 05:45 | 34.04530 | 113.79034 | 16043 ft | 458 kts | 148° |
| 2026-04-30 05:45 | 34.01809 | 113.81053 | 16428 ft | 461 kts | 148° |
| 2026-04-30 05:46 | 33.99066 | 113.83088 | 16817 ft | 464 kts | 148° |
| 2026-04-30 05:46 | 33.96306 | 113.85135 | 17187 ft | 468 kts | 148° |
| 2026-04-30 05:46 | 33.93525 | 113.87194 | 17566 ft | 471 kts | 148° |
| 2026-04-30 05:46 | 33.90722 | 113.89269 | 17923 ft | 474 kts | 148° |
| 2026-04-30 05:47 | 33.87904 | 113.91353 | 18278 ft | 477 kts | 148° |
| 2026-04-30 05:47 | 33.85068 | 113.93447 | 18646 ft | 480 kts | 148° |
| 2026-04-30 05:47 | 33.82214 | 113.95554 | 18997 ft | 483 kts | 148° |
| 2026-04-30 05:47 | 33.79344 | 113.97671 | 19336 ft | 485 kts | 148° |
| 2026-04-30 05:48 | 33.76504 | 113.99764 | 19704 ft | 488 kts | 148° |
| 2026-04-30 05:48 | 33.73603 | 114.02024 | 20072 ft | 491 kts | 143° |
| 2026-04-30 05:48 | 33.71083 | 114.04788 | 20411 ft | 492 kts | 130° |
| 2026-04-30 05:48 | 33.69121 | 114.08074 | 20746 ft | 491 kts | 117° |
| 2026-04-30 05:49 | 33.67724 | 114.11795 | 21119 ft | 489 kts | 107° |
| 2026-04-30 05:49 | 33.66538 | 114.15691 | 21530 ft | 492 kts | 107° |
| 2026-04-30 05:49 | 33.65380 | 114.19511 | 21919 ft | 495 kts | 107° |
| 2026-04-30 05:49 | 33.64190 | 114.23382 | 22288 ft | 498 kts | 107° |
| 2026-04-30 05:50 | 33.62968 | 114.27310 | 22640 ft | 502 kts | 107° |
| 2026-04-30 05:50 | 33.61740 | 114.31238 | 22984 ft | 505 kts | 108° |
| 2026-04-30 05:50 | 33.60500 | 114.35190 | 23321 ft | 508 kts | 107° |
| 2026-04-30 05:50 | 33.59250 | 114.39170 | 23655 ft | 511 kts | 108° |
| 2026-04-30 05:51 | 33.57993 | 114.43171 | 23980 ft | 515 kts | 108° |
| 2026-04-30 05:51 | 33.56728 | 114.47201 | 24297 ft | 518 kts | 108° |
| 2026-04-30 05:51 | 33.55453 | 114.51247 | 24612 ft | 520 kts | 108° |
| 2026-04-30 05:51 | 33.54171 | 114.55311 | 24902 ft | 523 kts | 108° |
| 2026-04-30 05:52 | 33.52882 | 114.59397 | 25267 ft | 524 kts | 108° |
| 2026-04-30 05:52 | 33.51593 | 114.63475 | 25657 ft | 523 kts | 108° |
| 2026-04-30 05:52 | 33.50301 | 114.67549 | 26033 ft | 523 kts | 108° |
| 2026-04-30 05:52 | 33.48977 | 114.71619 | 26389 ft | 525 kts | 111° |
| 2026-04-30 05:53 | 33.47221 | 114.75452 | 26720 ft | 527 kts | 124° |
| 2026-04-30 05:53 | 33.44921 | 114.78872 | 27068 ft | 528 kts | 131° |
| 2026-04-30 05:53 | 33.42508 | 114.82187 | 27416 ft | 528 kts | 131° |
| 2026-04-30 05:53 | 33.40094 | 114.85497 | 27784 ft | 528 kts | 131° |
| 2026-04-30 05:54 | 33.37688 | 114.88815 | 28137 ft | 528 kts | 131° |
| 2026-04-30 05:54 | 33.35288 | 114.92137 | 28456 ft | 528 kts | 131° |
| 2026-04-30 05:54 | 33.32887 | 114.95460 | 28817 ft | 528 kts | 131° |
| 2026-04-30 05:54 | 33.30489 | 114.98778 | 29180 ft | 527 kts | 132° |
| 2026-04-30 05:55 | 33.28092 | 115.02096 | 29498 ft | 527 kts | 132° |
| 2026-04-30 05:55 | 33.25693 | 115.05411 | 29818 ft | 527 kts | 132° |
| 2026-04-30 05:55 | 33.23298 | 115.08718 | 30150 ft | 527 kts | 132° |
| 2026-04-30 05:55 | 33.20898 | 115.12028 | 30481 ft | 526 kts | 133° |
| 2026-04-30 05:56 | 33.18501 | 115.15327 | 30812 ft | 526 kts | 133° |
| 2026-04-30 05:56 | 33.16101 | 115.18628 | 31124 ft | 526 kts | 133° |
| 2026-04-30 05:56 | 33.13709 | 115.21919 | 31460 ft | 525 kts | 133° |
| 2026-04-30 05:56 | 33.11318 | 115.25203 | 31772 ft | 524 kts | 133° |
| 2026-04-30 05:57 | 33.08929 | 115.28482 | 32072 ft | 523 kts | 134° |
| 2026-04-30 05:57 | 33.06545 | 115.31753 | 32385 ft | 522 kts | 134° |
| 2026-04-30 05:57 | 33.04161 | 115.35021 | 32662 ft | 522 kts | 134° |
| 2026-04-30 05:57 | 33.01779 | 115.38283 | 32945 ft | 521 kts | 134° |
| 2026-04-30 05:58 | 32.99412 | 115.41550 | 33194 ft | 522 kts | 133° |
| 2026-04-30 05:58 | 32.97370 | 115.45070 | 33243 ft | 526 kts | 121° |
| 2026-04-30 05:58 | 32.94604 | 115.53147 | 33230 ft | 527 kts | 111° |
| 2026-04-30 05:59 | 32.92087 | 115.61366 | 33215 ft | 528 kts | 111° |
| 2026-04-30 05:59 | 32.89506 | 115.69551 | 33211 ft | 529 kts | 113° |